Time;durP1;ratioP1;P1;durP2;ratioP2;P2;SDS_P1;SDS_P2;PMS_P1;PMS_P2;Temp;Humidity;BMP_temperature;BMP_pressure;BME280_temperature;BME280_humidity;BME280_pressure;Samples;Min_cycle;Max_cycle;Signal;HPM_P1;HPM_P2
2023/04/05 00:01:38;;;;;;;6.60;3.83;;;0.30;99.90;;;;;;5076083;28;20523;-78
2023/04/05 00:04:06;;;;;;;5.37;4.33;;;;;;;;;;5074830;28;20452;-78
2023/04/05 00:06:33;;;;;;;7.07;4.37;;;0.30;99.90;;;;;;5075974;28;20516;-78
2023/04/05 00:09:02;;;;;;;6.90;4.20;;;0.20;99.90;;;;;;5076045;28;20456;-77
2023/04/05 00:11:31;;;;;;;6.30;4.40;;;0.20;99.90;;;;;;5075871;28;20503;-77
2023/04/05 00:13:59;;;;;;;5.87;4.13;;;0.20;99.90;;;;;;5075923;28;20453;-79
2023/04/05 00:16:28;;;;;;;5.10;3.50;;;0.30;99.90;;;;;;5075866;28;20449;-78
2023/04/05 00:18:57;;;;;;;5.10;3.80;;;0.30;99.90;;;;;;5074406;28;20484;-77
2023/04/05 00:21:24;;;;;;;6.93;4.60;;;0.30;99.90;;;;;;5075762;28;20495;-78
2023/04/05 00:23:53;;;;;;;6.80;4.47;;;0.30;99.90;;;;;;5075582;28;20445;-79
2023/04/05 00:26:21;;;;;;;7.80;5.33;;;;;;;;;;5075462;28;21018;-77
2023/04/05 00:28:48;;;;;;;8.07;7.23;;;;;;;;;;5075632;28;20476;-76
2023/04/05 00:31:15;;;;;;;4.90;3.37;;;;;;;;;;5075530;28;20449;-77
2023/04/05 00:33:42;;;;;;;5.80;4.33;;;;;;;;;;5074357;28;20450;-77
2023/04/05 00:36:11;;;;;;;5.67;4.33;;;0.30;99.90;;;;;;5075524;28;20464;-78
2023/04/05 00:38:38;;;;;;;5.87;4.10;;;;;;;;;;5075331;28;20489;-77
2023/04/05 00:41:06;;;;;;;5.50;4.30;;;;;;;;;;5075451;28;20497;-77
2023/04/05 00:43:33;;;;;;;9.03;4.50;;;;;;;;;;5075341;28;20452;-77
2023/04/05 00:46:00;;;;;;;8.00;4.63;;;;;;;;;;5075117;28;20449;-77
2023/04/05 00:48:27;;;;;;;7.13;4.70;;;;;;;;;;5074136;28;20519;-78
2023/04/05 00:50:55;;;;;;;4.90;3.80;;;;;;;;;;5075166;28;20446;-77
2023/04/05 00:53:23;;;;;;;7.70;4.40;;;0.30;99.90;;;;;;5075266;28;20489;-78
2023/04/05 00:55:52;;;;;;;7.73;4.33;;;0.30;99.90;;;;;;5075155;28;20825;-77
2023/04/05 00:58:21;;;;;;;5.07;3.60;;;;;;;;;;5074999;28;21010;-78
2023/04/05 01:01:00;;;;;;;5.43;3.70;;;0.30;99.90;;;;;;5074876;28;20457;-78
2023/04/05 01:03:29;;;;;;;7.67;4.33;;;0.20;99.90;;;;;;5073675;28;20449;-77
2023/04/05 01:06:07;;;;;;;4.60;4.10;;;0.30;99.90;;;;;;5074295;28;20464;-78
2023/04/05 01:08:45;;;;;;;7.07;4.23;;;0.30;99.90;;;;;;5074915;28;20460;-78
2023/04/05 01:11:12;;;;;;;7.57;5.30;;;;;;;;;;5074696;28;20453;-78
2023/04/05 01:13:39;;;;;;;6.73;4.43;;;;;;;;;;5074860;28;20456;-77
2023/04/05 01:16:06;;;;;;;6.03;3.77;;;;;;;;;;5074684;28;20456;-78
2023/04/05 01:18:36;;;;;;;5.37;4.10;;;;;;;;;;5073454;28;20450;-79
2023/04/05 01:21:28;;;;;;;5.47;4.43;;;0.10;99.90;;;;;;5074758;28;20877;-77
2023/04/05 01:24:11;;;;;;;4.43;3.60;;;0.10;99.90;;;;;;5072858;28;20461;-77
2023/04/05 01:26:59;;;;;;;4.63;3.87;;;0.00;99.90;;;;;;5074369;28;20493;-77
2023/04/05 01:29:41;;;;;;;7.90;4.30;;;;;;;;;;5074418;28;20441;-77
2023/04/05 01:32:18;;;;;;;4.20;3.23;;;0.00;99.90;;;;;;5074425;28;20503;-76
2023/04/05 01:34:48;;;;;;;8.60;3.83;;;;;;;;;;5074379;28;20446;-77
2023/04/05 01:37:18;;;;;;;6.13;3.87;;;0.00;99.90;;;;;;5074399;28;20449;-78
2023/04/05 01:39:47;;;;;;;7.47;4.17;;;0.00;99.90;;;;;;5073995;28;20488;-77
2023/04/05 01:42:14;;;;;;;5.77;4.23;;;;;;;;;;5074271;28;20549;-80
2023/04/05 01:44:41;;;;;;;6.40;4.23;;;;;;;;;;5074175;28;20445;-78
2023/04/05 01:47:08;;;;;;;5.50;4.23;;;;;;;;;;5074036;28;20496;-78
2023/04/05 01:49:36;;;;;;;7.20;4.30;;;;;;;;;;5072972;28;20537;-78
2023/04/05 01:52:03;;;;;;;5.20;3.47;;;;;;;;;;5074062;28;20460;-78
2023/04/05 01:54:30;;;;;;;4.97;3.43;;;;;;;;;;5073989;28;20453;-77
2023/04/05 01:56:57;;;;;;;4.43;3.43;;;;;;;;;;5073857;28;20469;-76
2023/04/05 01:59:25;;;;;;;3.40;3.10;;;;;;;;;;5073915;28;20925;-78
2023/04/05 02:01:52;;;;;;;6.47;4.33;;;;;;;;;;5073812;28;20450;-77
2023/04/05 02:04:19;;;;;;;4.33;3.60;;;;;;;;;;5072589;28;20450;-76
2023/04/05 02:06:47;;;;;;;5.20;3.40;;;;;;;;;;5073549;28;20504;-76
2023/04/05 02:09:14;;;;;;;7.80;4.70;;;;;;;;;;5073766;28;20452;-77
2023/04/05 02:11:41;;;;;;;4.97;3.43;;;;;;;;;;5073614;28;20937;-76
2023/04/05 02:14:09;;;;;;;4.40;3.50;;;;;;;;;;5073590;28;20463;-76
2023/04/05 02:16:36;;;;;;;7.03;3.83;;;;;;;;;;5073623;28;20495;-77
2023/04/05 02:19:04;;;;;;;5.37;4.13;;;;;;;;;;5071519;28;20477;-77
2023/04/05 02:21:31;;;;;;;4.40;3.47;;;;;;;;;;5073492;28;20489;-78
2023/04/05 02:24:00;;;;;;;5.43;3.63;;;;;;;;;;5073355;28;20456;-77
2023/04/05 02:26:27;;;;;;;5.57;3.93;;;;;;;;;;5073286;28;20545;-77
2023/04/05 02:28:54;;;;;;;5.30;4.27;;;;;;;;;;5073337;28;20489;-78
2023/04/05 02:31:21;;;;;;;4.83;3.63;;;;;;;;;;5073304;28;20448;-77
2023/04/05 02:33:48;;;;;;;4.93;3.93;;;;;;;;;;5072119;28;20450;-79
2023/04/05 02:36:15;;;;;;;4.37;3.33;;;;;;;;;;5073170;28;20955;-78
2023/04/05 02:38:43;;;;;;;7.07;4.00;;;;;;;;;;5072864;28;21014;-77
2023/04/05 02:41:11;;;;;;;5.13;3.63;;;;;;;;;;5073097;28;20472;-77
2023/04/05 02:43:38;;;;;;;5.03;3.30;;;;;;;;;;5073092;28;20936;-78
2023/04/05 02:46:05;;;;;;;5.60;4.37;;;;;;;;;;5073163;28;20826;-77
2023/04/05 02:48:33;;;;;;;4.67;3.60;;;;;;;;;;5071795;28;20500;-77
2023/04/05 02:51:00;;;;;;;4.73;4.23;;;;;;;;;;5073062;28;20453;-78
2023/04/05 02:53:27;;;;;;;5.50;3.80;;;;;;;;;;5073154;28;20457;-79
2023/04/05 02:55:54;;;;;;;3.93;3.10;;;;;;;;;;5073126;28;20461;-78
2023/04/05 02:58:23;;;;;;;4.67;3.90;;;;;;;;;;5073037;28;20515;-78
2023/04/05 03:00:51;;;;;;;3.97;3.57;;;;;;;;;;5073027;28;20484;-77
2023/04/05 03:03:18;;;;;;;7.73;4.20;;;;;;;;;;5071642;28;20487;-77
2023/04/05 03:05:47;;;;;;;4.23;3.80;;;;;;;;;;5072936;28;20540;-77
2023/04/05 03:08:18;;;;;;;4.70;3.77;;;;;;;;;;5072795;28;20499;-77
2023/04/05 03:10:45;;;;;;;7.70;4.60;;;;;;;;;;5072969;28;20951;-76
2023/04/05 03:13:13;;;;;;;4.87;3.57;;;;;;;;;;5072832;28;20968;-77
2023/04/05 03:15:41;;;;;;;4.73;3.53;;;;;;;;;;5072849;28;20465;-78
2023/04/05 03:18:08;;;;;;;8.00;5.00;;;;;;;;;;5071662;28;20473;-77
2023/04/05 03:20:38;;;;;;;7.33;4.50;;;;;;;;;;5072945;28;20476;-77
2023/04/05 03:23:06;;;;;;;5.97;4.60;;;;;;;;;;5072581;28;20504;-77
2023/04/05 03:25:34;;;;;;;5.73;4.00;;;;;;;;;;5072794;28;20449;-77
2023/04/05 03:28:02;;;;;;;7.00;4.10;;;;;;;;;;5072650;28;20523;-76
2023/04/05 03:30:29;;;;;;;25.20;18.07;;;;;;;;;;5075864;28;20465;-76
2023/04/05 03:33:00;;;;;;;133.57;62.50;;;;;;;;;;5075329;28;20856;-77
2023/04/05 03:35:27;;;;;;;38.57;30.53;;;;;;;;;;5076566;28;20542;-76
2023/04/05 03:37:54;;;;;;;146.03;66.67;;;;;;;;;;5076565;28;20461;-77
2023/04/05 03:40:21;;;;;;;125.60;58.63;;;;;;;;;;5076269;28;20485;-77
2023/04/05 03:42:48;;;;;;;14.03;12.30;;;;;;;;;;5076513;28;20452;-76
2023/04/05 03:45:15;;;;;;;8.10;5.63;;;;;;;;;;5076349;28;20459;-77
2023/04/05 03:47:43;;;;;;;7.80;5.80;;;;;;;;;;5075346;28;20477;-77
2023/04/05 03:50:11;;;;;;;6.63;5.10;;;;;;;;;;5076351;28;20540;-77
2023/04/05 03:52:38;;;;;;;6.53;5.90;;;;;;;;;;5076239;28;20817;-78
2023/04/05 03:55:06;;;;;;;6.97;4.33;;;;;;;;;;5076150;28;20446;-77
2023/04/05 03:57:33;;;;;;;10.23;7.63;;;;;;;;;;5076115;28;20456;-77
2023/04/05 04:00:00;;;;;;;8.57;7.60;;;;;;;;;;5076116;28;20445;-77
2023/04/05 04:02:27;;;;;;;15.03;8.57;;;;;;;;;;5074993;28;20458;-78
2023/04/05 04:04:54;;;;;;;5.10;4.33;;;;;;;;;;5075989;28;20445;-76
2023/04/05 04:07:22;;;;;;;4.90;3.93;;;;;;;;;;5075941;28;20839;-77
2023/04/05 04:09:50;;;;;;;6.30;4.50;;;;;;;;;;5075967;28;20450;-78
2023/04/05 04:12:17;;;;;;;5.53;4.40;;;;;;;;;;5075850;28;20450;-77
2023/04/05 04:14:44;;;;;;;8.93;5.20;;;;;;;;;;5075772;28;20457;-76
2023/04/05 04:17:11;;;;;;;7.43;3.90;;;;;;;;;;5075728;28;20502;-79
2023/04/05 04:19:38;;;;;;;6.87;4.73;;;;;;;;;;5075007;28;20458;-78
2023/04/05 04:22:08;;;;;;;4.37;3.53;;;;;;;;;;5075796;28;20453;-77
2023/04/05 04:24:37;;;;;;;5.80;3.90;;;;;;;;;;5075685;28;20492;-78
2023/04/05 04:27:05;;;;;;;5.17;3.90;;;;;;;;;;5075673;28;20597;-77
2023/04/05 04:29:37;;;;;;;5.87;3.57;;;;;;;;;;5075535;28;20497;-76
2023/04/05 04:32:05;;;;;;;4.90;3.53;;;;;;;;;;5075615;28;20552;-77
2023/04/05 04:34:33;;;;;;;6.20;4.40;;;;;;;;;;5074628;28;20451;-77
2023/04/05 04:37:00;;;;;;;5.70;4.27;;;;;;;;;;5075611;28;20482;-76
2023/04/05 04:39:30;;;;;;;6.50;4.53;;;;;;;;;;5074928;28;20485;-78
2023/04/05 04:42:00;;;;;;;4.47;3.53;;;;;;;;;;5074345;28;20450;-76
2023/04/05 04:44:30;;;;;;;5.53;4.53;;;;;;;;;;5075334;28;20509;-77
2023/04/05 04:46:57;;;;;;;15.13;4.40;;;;;;;;;;5075322;28;20548;-77
2023/04/05 04:49:24;;;;;;;6.67;4.97;;;;;;;;;;5073948;28;20491;-78
2023/04/05 04:51:51;;;;;;;6.87;5.47;;;;;;;;;;5075155;28;20449;-76
2023/04/05 04:54:21;;;;;;;14.47;8.60;;;;;;;;;;5075037;28;20548;-76
2023/04/05 04:56:48;;;;;;;18.33;8.47;;;;;;;;;;5075179;28;20458;-76
2023/04/05 04:59:16;;;;;;;14.80;9.13;;;-1.90;99.90;;;;;;5075099;28;20458;-77
2023/04/05 05:01:45;;;;;;;16.70;8.57;;;;;;;;;;5074976;28;20453;-76
2023/04/05 05:04:12;;;;;;;10.93;6.90;;;;;;;;;;5073777;28;20445;-76
2023/04/05 05:06:39;;;;;;;9.93;6.60;;;;;;;;;;5074895;28;20457;-76
2023/04/05 05:09:06;;;;;;;8.33;5.07;;;;;;;;;;5074762;28;20497;-77
2023/04/05 05:11:34;;;;;;;7.93;5.17;;;;;;;;;;5074851;28;20955;-77
2023/04/05 05:14:01;;;;;;;6.60;4.70;;;;;;;;;;5074764;28;20461;-76
2023/04/05 05:16:29;;;;;;;4.43;4.03;;;;;;;;;;5074616;28;20803;-77
2023/04/05 05:18:57;;;;;;;6.80;4.03;;;;;;;;;;5073419;28;20475;-76
2023/04/05 05:21:25;;;;;;;6.00;4.07;;;;;;;;;;5074476;28;20775;-77
2023/04/05 05:23:52;;;;;;;7.73;4.30;;;;;;;;;;5074494;28;20449;-76
2023/04/05 05:26:20;;;;;;;6.73;4.33;;;;;;;;;;5074516;28;20459;-77
2023/04/05 05:28:48;;;;;;;6.00;4.10;;;;;;;;;;5074358;28;21001;-77
2023/04/05 05:31:16;;;;;;;7.93;5.27;;;;;;;;;;5074418;28;20454;-77
2023/04/05 05:33:48;;;;;;;6.27;5.43;;;;;;;;;;5073129;28;20454;-77
2023/04/05 05:36:15;;;;;;;6.90;4.80;;;;;;;;;;5074187;28;20869;-77
2023/04/05 05:38:42;;;;;;;7.80;4.63;;;;;;;;;;5073965;28;20521;-78
2023/04/05 05:41:10;;;;;;;7.20;5.30;;;;;;;;;;5074373;28;20477;-76
2023/04/05 05:43:37;;;;;;;9.37;6.27;;;;;;;;;;5074206;28;20442;-77
2023/04/05 05:46:04;;;;;;;9.80;5.80;;;;;;;;;;5074098;28;20454;-78
2023/04/05 05:48:32;;;;;;;7.47;5.10;;;;;;;;;;5072552;28;20493;-77
2023/04/05 05:51:08;;;;;;;5.60;4.83;;;0.70;99.90;;;;;;5073957;28;20484;-77
2023/04/05 05:53:35;;;;;;;6.93;5.17;;;;;;;;;;5073872;28;20447;-77
2023/04/05 05:56:02;;;;;;;7.10;5.00;;;;;;;;;;5073967;28;20453;-78
2023/04/05 05:58:30;;;;;;;7.73;6.07;;;;;;;;;;5073870;28;20446;-77
2023/04/05 06:00:57;;;;;;;7.47;5.97;;;;;;;;;;5073739;28;20453;-76
2023/04/05 06:03:25;;;;;;;9.30;6.23;;;;;;;;;;5072678;28;20446;-77
2023/04/05 06:05:52;;;;;;;9.23;5.67;;;;;;;;;;5073640;28;20928;-76
2023/04/05 06:08:20;;;;;;;7.20;6.03;;;2.20;99.90;;;;;;5073580;28;20485;-76
2023/04/05 06:10:49;;;;;;;6.97;5.97;;;2.60;99.90;;;;;;5073577;28;20446;-78
2023/04/05 06:13:16;;;;;;;13.57;6.30;;;;;;;;;;5073638;28;20453;-77
2023/04/05 06:15:44;;;;;;;9.50;6.00;;;;;;;;;;5073457;28;20442;-77
2023/04/05 06:18:11;;;;;;;7.90;6.20;;;;;;;;;;5072225;28;20465;-77
2023/04/05 06:20:39;;;;;;;9.00;6.33;;;;;;;;;;5073469;28;20452;-77
2023/04/05 06:23:07;;;;;;;11.60;7.00;;;;;;;;;;5073495;28;20553;-78
2023/04/05 06:25:35;;;;;;;9.97;7.03;;;;;;;;;;5073337;28;20445;-78
2023/04/05 06:28:02;;;;;;;6.97;6.27;;;3.80;93.30;;;;;;5073201;28;20474;-77
2023/04/05 06:30:30;;;;;;;9.07;7.17;;;;;;;;;;5073234;28;20457;-77
2023/04/05 06:32:57;;;;;;;11.97;6.87;;;;;;;;;;5072132;28;20476;-79
2023/04/05 06:35:25;;;;;;;8.13;5.83;;;4.10;91.00;;;;;;5073294;28;20450;-78
2023/04/05 06:37:52;;;;;;;13.60;6.90;;;;;;;;;;5073186;28;20485;-78
2023/04/05 06:40:19;;;;;;;11.80;7.03;;;;;;;;;;5073065;28;20470;-78
2023/04/05 06:42:47;;;;;;;12.90;8.20;;;4.40;92.30;;;;;;5072900;28;20457;-77
2023/04/05 06:45:15;;;;;;;9.60;7.10;;;;;;;;;;5073136;28;20446;-79
2023/04/05 06:47:42;;;;;;;9.07;6.60;;;;;;;;;;5071699;28;20932;-77
2023/04/05 06:50:10;;;;;;;7.60;6.03;;;;;;;;;;5074686;28;20587;-78
2023/04/05 06:52:37;;;;;;;9.10;6.07;;;;;;;;;;5073097;28;20445;-78
2023/04/05 06:55:04;;;;;;;9.40;6.10;;;;;;;;;;5074622;28;20449;-79
2023/04/05 06:57:31;;;;;;;9.50;6.00;;;;;;;;;;5072931;28;20461;-78
2023/04/05 07:00:00;;;;;;;9.30;6.27;;;;;;;;;;5073014;28;20460;-79
2023/04/05 07:02:27;;;;;;;12.87;9.90;;;;;;;;;;5071733;28;20453;-78
2023/04/05 07:04:59;;;;;;;9.77;6.30;;;;;;;;;;5072295;28;20963;-79
2023/04/05 07:07:26;;;;;;;15.93;6.77;;;;;;;;;;5072889;28;20518;-77
2023/04/05 07:09:53;;;;;;;12.03;6.90;;;;;;;;;;5072629;28;20493;-78
2023/04/05 07:12:20;;;;;;;9.53;6.70;;;;;;;;;;5072880;28;20448;-77
2023/04/05 07:14:47;;;;;;;7.87;6.80;;;;;;;;;;5072796;28;20457;-77
2023/04/05 07:17:16;;;;;;;10.07;6.07;;;;;;;;;;5072316;28;20462;-77
2023/04/05 07:19:43;;;;;;;10.20;6.70;;;;;;;;;;5072735;28;20958;-77
2023/04/05 07:22:10;;;;;;;9.37;6.40;;;;;;;;;;5072812;28;20968;-78
2023/04/05 07:24:37;;;;;;;11.17;7.10;;;;;;;;;;5072613;28;20456;-78
2023/04/05 07:27:04;;;;;;;9.60;6.20;;;;;;;;;;5072652;28;20457;-79
2023/04/05 07:29:33;;;;;;;10.07;6.70;;;;;;;;;;5072519;28;20497;-77
2023/04/05 07:32:00;;;;;;;7.10;6.17;;;;;;;;;;5072699;28;20496;-79
2023/04/05 07:34:28;;;;;;;7.37;6.20;;;8.50;62.40;;;;;;5071449;28;20453;-79
2023/04/05 07:36:55;;;;;;;7.70;5.87;;;;;;;;;;5072523;28;20441;-78
2023/04/05 07:39:22;;;;;;;6.97;6.27;;;;;;;;;;5072371;28;20484;-78
2023/04/05 07:41:50;;;;;;;9.57;6.90;;;;;;;;;;5072471;28;20449;-79
2023/04/05 07:44:17;;;;;;;9.80;6.40;;;;;;;;;;5072591;28;20507;-77
2023/04/05 07:46:44;;;;;;;10.57;8.07;;;;;;;;;;5070629;28;20841;-77
2023/04/05 07:49:11;;;;;;;6.63;5.93;;;;;;;;;;5070848;28;20492;-80
2023/04/05 07:51:41;;;;;;;8.60;6.03;;;;;;;;;;5072309;28;20453;-79
2023/04/05 07:54:09;;;;;;;7.57;5.70;;;;;;;;;;5072397;28;20552;-78
2023/04/05 07:56:37;;;;;;;8.90;5.73;;;;;;;;;;5072354;28;20533;-79
2023/04/05 07:59:04;;;;;;;9.43;5.83;;;;;;;;;;5072259;28;20453;-78
2023/04/05 08:01:31;;;;;;;12.83;5.80;;;;;;;;;;5072279;28;20449;-77
2023/04/05 08:03:58;;;;;;;10.83;7.30;;;;;;;;;;5070960;28;20449;-78
2023/04/05 08:06:26;;;;;;;8.13;7.10;;;8.20;64.80;;;;;;5072321;28;20449;-78
2023/04/05 08:08:55;;;;;;;7.67;5.70;;;;;;;;;;5072172;28;21017;-78
2023/04/05 08:11:22;;;;;;;8.03;7.00;;;;;;;;;;5072287;28;20449;-78
2023/04/05 08:13:49;;;;;;;8.07;7.23;;;;;;;;;;5072124;28;20445;-80
2023/04/05 08:16:16;;;;;;;8.10;6.30;;;;;;;;;;5073061;28;20465;-78
2023/04/05 08:18:43;;;;;;;7.27;6.00;;;;;;;;;;5074380;28;20438;-79
2023/04/05 08:21:10;;;;;;;7.60;5.77;;;;;;;;;;5075655;28;20445;-77
2023/04/05 08:23:38;;;;;;;7.20;6.43;;;;;;;;;;5075617;28;20445;-78
2023/04/05 08:26:07;;;;;;;5.97;4.83;;;10.20;52.20;;;;;;5075669;28;20507;-79
2023/04/05 08:28:34;;;;;;;9.83;5.97;;;;;;;;;;5075395;28;20501;-78
2023/04/05 08:31:01;;;;;;;5.30;4.80;;;;;;;;;;5075549;28;20446;-78
2023/04/05 08:33:29;;;;;;;7.83;6.97;;;;;;;;;;5074288;28;20445;-79
2023/04/05 08:35:57;;;;;;;6.20;5.30;;;;;;;;;;5075529;28;20511;-79
2023/04/05 08:38:24;;;;;;;8.73;7.17;;;;;;;;;;5075316;28;20452;-80
2023/04/05 08:40:51;;;;;;;6.80;5.50;;;;;;;;;;5075319;28;20449;-79
2023/04/05 08:43:23;;;;;;;13.40;12.07;;;;;;;;;;5075372;28;20800;-79
2023/04/05 08:45:52;;;;;;;37.63;29.23;;;11.20;56.90;;;;;;5075178;28;20499;-79
2023/04/05 08:48:19;;;;;;;207.50;86.60;;;;;;;;;;5073975;28;20450;-80
2023/04/05 08:50:51;;;;;;;204.57;85.43;;;;;;;;;;5075209;28;20496;-80
